Besuchen Sie unsere anderen Wetter Stationen:

Template documentation
and downloads

And another site


METAR-Meldungen aus der Umgebung

   
EHVK - Volkel Rnlafb, Netherlands
Entfernung von der Station bis: SW 18 km
Aktualisierung: 24-01-2022 01:55
Bewölkt  
Bewölkt  
   Wind: SSO 9.3 km/h
Wind: SSO 9.3 km/h
Temperatur: 5°C
Gefühlt: 3°C
Taupunkt: 1°C
Luftfeuchte: 76%
Luftdruck: 1034 hPa
Bewölkt: Bewölkt
Sichtbarkeit: More than 10 km
Bewölkung: Bewölkt 670.6 m
EHVK 240055Z AUTO 15005KT 9999 OVC022 05/01 Q1034 WHT
EDLV - Niederrhein, Germany
Entfernung von der Station bis: SO 25 km
Aktualisierung: 23-01-2022 23:50
Nicht aktuell
Stark bewölkt  
Stark bewölkt  
   Wind: variiert 3.7 km/h
Wind: variiert 3.7 km/h
Temperatur: 5°C
Taupunkt: 2°C
Luftfeuchte: 81%
Luftdruck: 1035 hPa
Bewölkt: Stark bewölkt
Sichtbarkeit: More than 10 km
Bewölkung: Stark bewölkt 792.5 m
EDLV 232250Z VRB02KT 9999 BKN026 05/02 Q1035
EHDL - Deelen Rnlafb, Netherlands
Entfernung von der Station bis: N 35 km
Aktualisierung: 24-01-2022 01:55
Bewölkt  
Bewölkt  
   Wind: SSO 5.6 km/h
Wind: SSO 5.6 km/h
Temperatur: 5°C
Gefühlt: 4°C
Taupunkt: 2°C
Luftfeuchte: 81%
Luftdruck: 1034 hPa
Bewölkt: Bewölkt
Sichtbarkeit: More than 10 km
Bewölkung: Bewölkt 640.1 m
EHDL 240055Z AUTO 16003KT 130V190 9999 OVC021 05/02 Q1034 WHT
EHEH - Eindhoven Rnlafb, Netherlands
Entfernung von der Station bis: SW 48 km
Aktualisierung: 24-01-2022 01:55
Bewölkt  
Bewölkt  
   Wind: SO 7.4 km/h
Wind: SO 7.4 km/h
Temperatur: 5°C
Gefühlt: 3°C
Taupunkt: 1°C
Luftfeuchte: 76%
Luftdruck: 1034 hPa
Bewölkt: Bewölkt
Sichtbarkeit: More than 10 km
Bewölkung: Bewölkt 701 m
EHEH 240055Z AUTO 13004KT 110V170 9999 OVC023 05/01 Q1034 WHT
EHGR - Gilze-Rijen Rnla, Netherlands
Entfernung von der Station bis: WSW 70 km
Aktualisierung: 24-01-2022 01:55
Nebel, Bewölkt  
Nebel, Bewölkt  
   Wind: SO 5.6 km/h
Wind: SO 5.6 km/h
Temperatur: 5°C
Gefühlt: 4°C
Taupunkt: 2°C
Luftfeuchte: 81%
Luftdruck: 1034 hPa
Bewölkt: Bewölkt
Sichtbarkeit: 9 km
Bewölkung: Bewölkt 670.6 m
EHGR 240055Z AUTO 13003KT 9000 BR OVC022 05/02 Q1034 WHT
EBBL - Kleine-Brogel(Ba, Belgium
Entfernung von der Station bis: SSW 71 km
Aktualisierung: 24-01-2022 01:55
Bewölkt  
Bewölkt  
   Wind: SSO 7.4 km/h
Wind: SSO 7.4 km/h
Temperatur: 4°C
Gefühlt: 2°C
Taupunkt: 0°C
Luftfeuchte: 75%
Luftdruck: 1034 hPa
Bewölkt: Bewölkt
Sichtbarkeit: More than 10 km
Bewölkung: Bewölkt 701 m
EBBL 240055Z AUTO 15004KT 9999 OVC023/// 04/00 Q1034 WHT

Script entwickelt von  Saratoga-weather.org Angepasst für das Template von  Weerstation Leuven

Sie finden unser Wetter-Infos auch auf:

netzwerkwettercom

European Weather Network

WeatherCloud

AWEKAS

Citizen Weather Observer Program (CWOP)

HAMweather, WeatherForYou, PWS Weather

Von uns verwendete Ausrüstung:

Wetterstation
Davis VP2

Wetterprogramm
Weather Display

Davis VP2

Weather Display